Time;durP1;ratioP1;P1;durP2;ratioP2;P2;SDS_P1;SDS_P2;PMS_P1;PMS_P2;Temp;Humidity;BMP_temperature;BMP_pressure;BME280_temperature;BME280_humidity;BME280_pressure;Samples;Min_cycle;Max_cycle;Signal;HPM_P1;HPM_P2
2024/03/31 00:01:06;;;;;;;;;;;;;;;;;;5027455;28;19980;-73
2024/03/31 00:03:32;;;;;;;;;;;;;;;;;;5030712;28;20028;-72
2024/03/31 00:05:57;;;;;;;;;;;;;;;;;;5025792;28;20443;-73
2024/03/31 00:08:23;;;;;;;;;;;;;;;;;;5024038;28;19928;-73
2024/03/31 00:10:48;;;;;;;;;;;;;;;;;;5016571;28;20282;-72
2024/03/31 00:13:13;;;;;;;;;;;;;;;;;;5024775;28;20389;-75
2024/03/31 00:15:39;;;;;;;;;;;;;;;;;;5017696;28;19929;-75
2024/03/31 00:18:04;;;;;;;;;;;;;;;;;;5021931;28;20399;-72
2024/03/31 00:20:30;;;;;;;;;;;;;;;;;;5020418;28;19932;-74
2024/03/31 00:22:55;;;;;;;;;;;;;;;;;;5028505;28;19925;-75
2024/03/31 00:25:21;;;;;;;;;;;;;;;;;;5031311;28;19929;-74
2024/03/31 00:27:46;;;;;;;;;;;;;;;;;;5022182;28;20059;-76
2024/03/31 00:30:12;;;;;;;;;;;;;;;;;;5003410;28;19936;-72
2024/03/31 00:32:37;;;;;;;;;;;;;;;;;;5017967;28;19937;-74
2024/03/31 00:35:03;;;;;;;;;;;;;;;;;;5020715;28;19929;-74
2024/03/31 00:37:29;;;;;;;;;;;;;;;;;;5020556;28;20373;-75
2024/03/31 00:39:54;;;;;;;;;;;;;;;;;;4999060;28;19932;-74
2024/03/31 00:42:20;;;;;;;;;;;;;;;;;;5022295;28;19929;-72
2024/03/31 00:44:45;;;;;;;;;;;;;;;;;;5020831;28;19929;-75
2024/03/31 00:47:11;;;;;;;;;;;;;;;;;;5009143;28;19933;-74
2024/03/31 00:49:36;;;;;;;;;;;;;;;;;;5017206;28;20500;-74
2024/03/31 00:52:02;;;;;;;;;;;;;;;;;;5023685;28;19939;-74
2024/03/31 00:54:27;;;;;;;;;;;;;;;;;;5019164;28;19925;-74
2024/03/31 00:56:53;;;;;;;;;;;;;;;;;;5005981;28;19929;-75
2024/03/31 00:59:18;;;;;;;;;;;;;;;;;;5021985;28;20091;-74
2024/03/31 01:01:43;;;;;;;;;;;;;;;;;;4999783;28;19932;-74
2024/03/31 01:04:09;;;;;;;;;;;;;;;;;;5017552;28;19968;-77
2024/03/31 01:06:34;;;;;;;;;;;;;;;;;;5019840;28;19979;-73
2024/03/31 01:09:00;;;;;;;;;;;;;;;;;;5021753;28;19951;-74
2024/03/31 01:11:25;;;;;;;;;;;;;;;;;;5011343;28;19956;-74
2024/03/31 01:13:51;;;;;;;;;;;;;;;;;;5005887;28;20381;-75
2024/03/31 01:16:17;;;;;;;;;;;;;;;;;;5021011;28;19928;-76
2024/03/31 01:18:43;;;;;;;;;;;;;;;;;;5022621;28;20285;-74
2024/03/31 01:21:09;;;;;;;;;;;;;;;;;;4999643;28;19929;-72
2024/03/31 01:23:35;;;;;;;;;;;;;;;;;;5009125;28;19979;-73
2024/03/31 01:26:00;;;;;;;;;;;;;;;;;;5003295;28;19995;-72
2024/03/31 01:28:27;;;;;;;;;;;;;;;;;;5019760;28;20417;-73
2024/03/31 01:30:52;;;;;;;;;;;;;;;;;;5018795;28;19933;-73
2024/03/31 01:33:18;;;;;;;;;;;;;;;;;;5020353;28;19928;-75
2024/03/31 01:35:43;;;;;;;;;;;;;;;;;;5019797;28;19929;-73
2024/03/31 01:38:09;;;;;;;;;;;;;;;;;;5017381;28;19994;-74
2024/03/31 01:40:34;;;;;;;;;;;;;;;;;;5016712;28;19928;-74
2024/03/31 01:43:00;;;;;;;;;;;;;;;;;;5020743;28;20320;-77
2024/03/31 01:45:25;;;;;;;;;;;;;;;;;;5025325;28;19983;-74
2024/03/31 01:47:51;;;;;;;;;;;;;;;;;;5017093;28;20381;-76
2024/03/31 01:50:16;;;;;;;;;;;;;;;;;;5021059;28;20385;-74
2024/03/31 01:52:41;;;;;;;;;;;;;;;;;;5015485;28;19933;-74
2024/03/31 01:55:07;;;;;;;;;;;;;;;;;;5019103;28;19963;-73
2024/03/31 01:57:32;;;;;;;;;;;;;;;;;;5013909;28;19925;-73
2024/03/31 01:59:58;;;;;;;;;;;;;;;;;;5021336;28;20403;-73
2024/03/31 02:02:23;;;;;;;;;;;;;;;;;;5005450;28;19925;-76
2024/03/31 02:04:49;;;;;;;;;;;;;;;;;;5020838;28;19933;-74
2024/03/31 02:07:14;;;;;;;;;;;;;;;;;;5001060;28;19936;-72
2024/03/31 02:09:40;;;;;;;;;;;;;;;;;;5018281;28;19928;-73
2024/03/31 02:12:05;;;;;;;;;;;;;;;;;;5002602;28;19971;-75
2024/03/31 02:14:32;;;;;;;;;;;;;;;;;;5001097;28;20016;-72
2024/03/31 02:16:57;;;;;;;;;;;;;;;;;;5019145;28;19937;-72
2024/03/31 02:19:23;;;;;;;;;;;;;;;;;;5016245;28;19931;-77
2024/03/31 02:21:48;;;;;;;;;;;;;;;;;;5013641;28;19929;-74
2024/03/31 02:24:14;;;;;;;;;;;;;;;;;;5019238;28;19975;-73
2024/03/31 02:26:40;;;;;;;;;;;;;;;;;;5020122;28;19929;-73
2024/03/31 02:29:05;;;;;;;;;;;;;;;;;;5020883;28;19983;-74
2024/03/31 02:31:31;;;;;;;;;;;;;;;;;;5025059;28;20312;-73
2024/03/31 02:33:59;;;;;;;;;;;;;;;;;;5025486;28;19991;-75
2024/03/31 02:36:24;;;;;;;;;;;;;;;;;;5025400;28;20004;-72
2024/03/31 02:38:49;;;;;;;;;;;;;;;;;;5005651;28;19925;-74
2024/03/31 02:41:15;;;;;;;;;;;;;;;;;;5021947;28;19983;-74
2024/03/31 02:43:40;;;;;;;;;;;;;;;;;;5009166;28;19925;-76
2024/03/31 02:46:05;;;;;;;;;;;;;;;;;;5021655;28;20554;-75
2024/03/31 02:48:32;;;;;;;;;;;;;;;;;;5032739;28;19925;-75
2024/03/31 02:50:57;;;;;;;;;;;;;;;;;;5021937;28;19933;-77
2024/03/31 02:53:23;;;;;;;;;;;;;;;;;;5019768;28;20430;-76
2024/03/31 02:55:48;;;;;;;;;;;;;;;;;;5020039;28;20415;-77
2024/03/31 02:58:14;;;;;;;;;;;;;;;;;;5016565;28;19964;-77
2024/03/31 03:00:39;;;;;;;;;;;;;;;;;;5007126;28;19995;-77
2024/03/31 03:03:05;;;;;;;;;;;;;;;;;;5028872;28;19931;-76
2024/03/31 03:05:31;;;;;;;;;;;;;;;;;;5024114;28;19971;-78
2024/03/31 03:07:58;;;;;;;;;;;;;;;;;;5026806;28;19958;-76
2024/03/31 03:10:24;;;;;;;;;;;;;;;;;;5003501;28;19932;-76
2024/03/31 03:12:49;;;;;;;;;;;;;;;;;;5005513;28;19952;-77
2024/03/31 03:15:15;;;;;;;;;;;;;;;;;;5006695;28;20301;-78
2024/03/31 03:17:40;;;;;;;;;;;;;;;;;;5022188;28;19932;-79
2024/03/31 03:20:06;;;;;;;;;;;;;;;;;;4990237;28;19983;-78
2024/03/31 03:22:31;;;;;;;;;;;;;;;;;;5004241;28;19932;-76
2024/03/31 03:24:56;;;;;;;;;;;;;;;;;;5002903;28;19929;-78
2024/03/31 03:27:22;;;;;;;;;;;;;;;;;;5004794;28;19925;-77
2024/03/31 03:29:48;;;;;;;;;;;;;;;;;;5007536;28;19925;-79
2024/03/31 03:32:14;;;;;;;;;;;;;;;;;;5023676;28;20388;-76
2024/03/31 03:34:39;;;;;;;;;;;;;;;;;;4998961;28;19925;-77
2024/03/31 03:37:05;;;;;;;;;;;;;;;;;;5013637;28;20369;-78
2024/03/31 03:39:31;;;;;;;;;;;;;;;;;;5024298;28;19959;-80
2024/03/31 03:41:56;;;;;;;;;;;;;;;;;;5004994;28;19932;-79
2024/03/31 03:44:22;;;;;;;;;;;;;;;;;;5026415;28;19974;-80
2024/03/31 03:46:47;;;;;;;;;;;;;;;;;;5004957;28;19974;-80
2024/03/31 03:49:12;;;;;;;;;;;;;;;;;;5021708;28;20012;-79
2024/03/31 03:51:38;;;;;;;;;;;;;;;;;;5001895;28;19975;-77
2024/03/31 03:54:04;;;;;;;;;;;;;;;;;;5020955;28;19990;-80
2024/03/31 03:56:29;;;;;;;;;;;;;;;;;;5030339;28;20917;-77
2024/03/31 03:58:55;;;;;;;;;;;;;;;;;;5009187;28;19956;-77
2024/03/31 04:01:20;;;;;;;;;;;;;;;;;;5026741;28;19926;-77
2024/03/31 04:03:46;;;;;;;;;;;;;;;;;;5021403;28;20429;-79
2024/03/31 04:06:11;;;;;;;;;;;;;;;;;;5020627;28;19929;-78
2024/03/31 04:08:36;;;;;;;;;;;;;;;;;;5016767;28;19929;-77
2024/03/31 04:11:02;;;;;;;;;;;;;;;;;;5020493;28;20000;-75
2024/03/31 04:13:27;;;;;;;;;;;;;;;;;;5028679;28;19925;-77
2024/03/31 04:15:53;;;;;;;;;;;;;;;;;;5018774;28;19929;-78
2024/03/31 04:18:18;;;;;;;;;;;;;;;;;;5023193;28;19933;-77
2024/03/31 04:20:43;;;;;;;;;;;;;;;;;;5001316;28;19929;-76
2024/03/31 04:23:09;;;;;;;;;;;;;;;;;;5003768;28;19936;-76
2024/03/31 04:25:34;;;;;;;;;;;;;;;;;;5004176;28;19960;-77
2024/03/31 04:28:00;;;;;;;;;;;;;;;;;;5021320;28;20434;-77
2024/03/31 04:30:25;;;;;;;;;;;;;;;;;;5005359;28;19928;-77
2024/03/31 04:32:51;;;;;;;;;;;;;;;;;;5003574;28;19925;-78
2024/03/31 04:35:16;;;;;;;;;;;;;;;;;;5019315;28;20311;-77
2024/03/31 04:37:42;;;;;;;;;;;;;;;;;;5007738;28;20294;-77
2024/03/31 04:40:07;;;;;;;;;;;;;;;;;;5006738;28;19971;-78
2024/03/31 04:42:33;;;;;;;;;;;;;;;;;;5023139;28;20392;-75
2024/03/31 04:44:58;;;;;;;;;;;;;;;;;;5008510;28;19928;-75
2024/03/31 04:47:24;;;;;;;;;;;;;;;;;;5000482;28;20019;-77
2024/03/31 04:49:50;;;;;;;;;;;;;;;;;;5021931;28;20298;-77
2024/03/31 04:52:15;;;;;;;;;;;;;;;;;;4997379;28;19929;-78
2024/03/31 04:54:42;;;;;;;;;;;;;;;;;;5020680;28;19925;-74
2024/03/31 04:57:07;;;;;;;;;;;;;;;;;;5019351;28;19932;-76
2024/03/31 04:59:33;;;;;;;;;;;;;;;;;;5024711;28;19925;-75
2024/03/31 05:01:58;;;;;;;;;;;;;;;;;;5004859;28;20032;-75
2024/03/31 05:04:24;;;;;;;;;;;;;;;;;;5018307;28;19929;-76
2024/03/31 05:06:49;;;;;;;;;;;;;;;;;;5016238;28;19924;-77
2024/03/31 05:09:15;;;;;;;;;;;;;;;;;;5009098;28;20015;-76
2024/03/31 05:11:41;;;;;;;;;;;;;;;;;;5018941;28;20336;-76
2024/03/31 05:14:06;;;;;;;;;;;;;;;;;;5002514;28;20375;-76
2024/03/31 05:16:37;;;;;;;;;;;;;;;;;;5039666;28;19993;-74
2024/03/31 05:19:04;;;;;;;;;;;;;;;;;;5004531;28;19929;-76
2024/03/31 05:21:29;;;;;;;;;;;;;;;;;;5016049;28;19925;-76
2024/03/31 05:23:55;;;;;;;;;;;;;;;;;;5006337;28;19992;-77
2024/03/31 05:26:27;;;;;;;;;;;;;;;;;;5003016;28;20289;-76
2024/03/31 05:28:53;;;;;;;;;;;;;;;;;;5006752;28;19924;-77
2024/03/31 05:31:18;;;;;;;;;;;;;;;;;;5002394;28;19949;-78
2024/03/31 05:34:10;;;;;;;;;;;;;;;;;;4978585;28;19924;-78
2024/03/31 05:36:39;;;;;;;;;;;;;;;;;;5022323;28;19963;-77
2024/03/31 05:39:04;;;;;;;;;;;;;;;;;;5022885;28;19925;-77
2024/03/31 05:41:29;;;;;;;;;;;;;;;;;;5041616;28;20491;-77
2024/03/31 05:43:55;;;;;;;;;;;;;;;;;;4999096;28;19936;-79
2024/03/31 05:46:21;;;;;;;;;;;;;;;;;;5019342;28;19936;-77
2024/03/31 05:48:48;;;;;;;;;;;;;;;;;;5000309;28;19960;-77
2024/03/31 05:51:15;;;;;;;;;;;;;;;;;;5004395;28;19933;-79
2024/03/31 05:53:43;;;;;;;;;;;;;;;;;;5019328;28;19932;-77
2024/03/31 05:56:09;;;;;;;;;;;;;;;;;;5021034;28;20584;-77
2024/03/31 05:58:35;;;;;;;;;;;;;;;;;;5020031;28;19929;-77
2024/03/31 06:01:01;;;;;;;;;;;;;;;;;;5022297;28;19947;-77
2024/03/31 06:03:28;;;;;;;;;;;;;;;;;;5019616;28;20530;-77
2024/03/31 06:05:53;;;;;;;;;;;;;;;;;;5019899;28;19952;-78
2024/03/31 06:08:19;;;;;;;;;;;;;;;;;;5017822;28;19933;-78
2024/03/31 06:10:44;;;;;;;;;;;;;;;;;;5007849;28;19936;-78
2024/03/31 06:13:09;;;;;;;;;;;;;;;;;;5022871;28;19929;-77
2024/03/31 06:15:35;;;;;;;;;;;;;;;;;;5019156;28;19933;-79
2024/03/31 06:18:01;;;;;;;;;;;;;;;;;;5036151;28;19931;-79
2024/03/31 06:20:27;;;;;;;;;;;;;;;;;;5000957;28;19925;-77
2024/03/31 06:22:52;;;;;;;;;;;;;;;;;;5023546;28;19925;-77
2024/03/31 06:25:18;;;;;;;;;;;;;;;;;;5018510;28;20076;-77
2024/03/31 06:27:44;;;;;;;;;;;;;;;;;;5019305;28;20343;-77
2024/03/31 06:30:09;;;;;;;;;;;;;;;;;;5015393;28;19925;-77
2024/03/31 06:32:34;;;;;;;;;;;;;;;;;;4997744;28;20297;-76
2024/03/31 06:35:01;;;;;;;;;;;;;;;;;;5020029;28;19933;-77
2024/03/31 06:37:26;;;;;;;;;;;;;;;;;;5018647;28;19987;-78
2024/03/31 06:39:52;;;;;;;;;;;;;;;;;;5005121;28;20511;-77
2024/03/31 06:42:19;;;;;;;;;;;;;;;;;;5021605;28;19928;-76
2024/03/31 06:44:49;;;;;;;;;;;;;;;;;;5014137;28;19933;-76
2024/03/31 06:47:14;;;;;;;;;;;;;;;;;;5006687;28;19979;-77
2024/03/31 06:49:40;;;;;;;;;;;;;;;;;;5003235;28;19978;-76
2024/03/31 06:52:05;;;;;;;;;;;;;;;;;;5003123;28;19929;-76
2024/03/31 06:54:30;;;;;;;;;;;;;;;;;;5009973;28;20288;-75
2024/03/31 06:56:56;;;;;;;;;;;;;;;;;;5021792;28;19979;-75
2024/03/31 06:59:22;;;;;;;;;;;;;;;;;;5015465;28;19936;-77
2024/03/31 07:01:47;;;;;;;;;;;;;;;;;;5002390;28;19925;-74
2024/03/31 07:04:13;;;;;;;;;;;;;;;;;;5004179;28;19972;-77
2024/03/31 07:06:39;;;;;;;;;;;;;;;;;;5019435;28;20352;-77
2024/03/31 07:09:04;;;;;;;;;;;;;;;;;;5015547;28;19929;-76
2024/03/31 07:11:30;;;;;;;;;;;;;;;;;;5019969;28;19929;-79
2024/03/31 07:13:55;;;;;;;;;;;;;;;;;;5017502;28;20002;-76
2024/03/31 07:16:21;;;;;;;;;;;;;;;;;;5000674;28;19991;-77
2024/03/31 07:18:46;;;;;;;;;;;;;;;;;;5004744;28;19929;-73
2024/03/31 07:21:12;;;;;;;;;;;;;;;;;;5020583;28;19929;-76
2024/03/31 07:23:37;;;;;;;;;;;;;;;;;;5009783;28;19929;-77
2024/03/31 07:26:03;;;;;;;;;;;;;;;;;;5025133;28;19936;-78
2024/03/31 07:28:29;;;;;;;;;;;;;;;;;;5020093;28;20444;-77
2024/03/31 07:30:54;;;;;;;;;;;;;;;;;;5018799;28;19929;-75
2024/03/31 07:33:19;;;;;;;;;;;;;;;;;;5021901;28;19979;-76
2024/03/31 07:35:45;;;;;;;;;;;;;;;;;;5022650;28;19929;-77
2024/03/31 07:38:10;;;;;;;;;;;;;;;;;;5018326;28;19928;-75
2024/03/31 07:40:36;;;;;;;;;;;;;;;;;;5019578;28;19925;-77
2024/03/31 07:43:02;;;;;;;;;;;;;;;;;;5023657;28;20312;-78
2024/03/31 07:45:28;;;;;;;;;;;;;;;;;;5022550;28;19925;-76
2024/03/31 07:47:53;;;;;;;;;;;;;;;;;;5016461;28;20015;-76
2024/03/31 07:50:18;;;;;;;;;;;;;;;;;;5021797;28;19928;-74
2024/03/31 07:52:44;;;;;;;;;;;;;;;;;;5020848;28;20370;-76
2024/03/31 07:55:09;;;;;;;;;;;;;;;;;;5023612;28;20435;-75
2024/03/31 07:57:35;;;;;;;;;;;;;;;;;;5027811;28;19933;-75
2024/03/31 08:00:00;;;;;;;;;;;;;;;;;;5021610;28;20435;-76
2024/03/31 08:02:26;;;;;;;;;;;;;;;;;;4998889;28;19925;-75
2024/03/31 08:04:51;;;;;;;;;;;;;;;;;;5020718;28;20311;-76
2024/03/31 08:07:16;;;;;;;;;;;;;;;;;;5023932;28;19928;-76
2024/03/31 08:09:42;;;;;;;;;;;;;;;;;;5023510;28;19937;-75
2024/03/31 08:12:07;;;;;;;;;;;;;;;;;;5024439;28;20447;-75
2024/03/31 08:14:33;;;;;;;;;;;;;;;;;;5021178;28;19979;-76
2024/03/31 08:16:58;;;;;;;;;;;;;;;;;;5017914;28;19955;-72
2024/03/31 08:19:25;;;;;;;;;;;;;;;;;;5017390;28;20628;-75
2024/03/31 08:21:50;;;;;;;;;;;;;;;;;;5017580;28;19929;-75
2024/03/31 08:24:16;;;;;;;;;;;;;;;;;;5024543;28;19932;-73
2024/03/31 08:26:41;;;;;;;;;;;;;;;;;;5026642;28;19929;-73
2024/03/31 08:29:06;;;;;;;;;;;;;;;;;;5023523;28;20327;-75
2024/03/31 08:31:32;;;;;;;;;;;;;;;;;;5004424;28;20372;-77
2024/03/31 08:33:57;;;;;;;;;;;;;;;;;;5021791;28;19933;-75
2024/03/31 08:36:23;;;;;;;;;;;;;;;;;;5017584;28;19928;-75
2024/03/31 08:38:48;;;;;;;;;;;;;;;;;;5025418;28;19975;-74
2024/03/31 08:41:13;;;;;;;;;;;;;;;;;;5016277;28;19925;-74
2024/03/31 08:43:39;;;;;;;;;;;;;;;;;;5023383;28;19925;-75
2024/03/31 08:46:04;;;;;;;;;;;;;;;;;;5018160;28;20028;-74
2024/03/31 08:48:30;;;;;;;;;;;;;;;;;;5022769;28;19932;-74
2024/03/31 08:50:55;;;;;;;;;;;;;;;;;;5021327;28;19929;-75
2024/03/31 08:53:21;;;;;;;;;;;;;;;;;;5006825;28;19929;-74
2024/03/31 08:55:46;;;;;;;;;;;;;;;;;;5019274;28;19928;-74
2024/03/31 08:58:11;;;;;;;;;;;;;;;;;;5018146;28;19956;-74
2024/03/31 09:00:37;;;;;;;;;;;;;;;;;;5019885;28;19929;-74
2024/03/31 09:03:02;;;;;;;;;;;;;;;;;;5020261;28;19992;-74
2024/03/31 09:05:28;;;;;;;;;;;;;;;;;;5020831;28;19928;-76
2024/03/31 09:07:54;;;;;;;;;;;;;;;;;;5046060;28;19925;-75
2024/03/31 09:10:19;;;;;;;;;;;;;;;;;;5020978;28;20718;-75
2024/03/31 09:12:45;;;;;;;;;;;;;;;;;;4998680;28;19998;-75
2024/03/31 09:15:10;;;;;;;;;;;;;;;;;;5022932;28;19929;-76
2024/03/31 09:17:35;;;;;;;;;;;;;;;;;;5021926;28;19925;-74
2024/03/31 09:20:01;;;;;;;;;;;;;;;;;;5015201;28;19975;-75
2024/03/31 09:22:26;;;;;;;;;;;;;;;;;;4998528;28;20376;-74
2024/03/31 09:24:53;;;;;;;;;;;;;;;;;;5023777;28;20296;-74
2024/03/31 09:27:19;;;;;;;;;;;;;;;;;;5017724;28;19933;-76
2024/03/31 09:29:44;;;;;;;;;;;;;;;;;;5017105;28;19971;-75
2024/03/31 09:32:10;;;;;;;;;;;;;;;;;;5018468;28;19951;-75
2024/03/31 09:34:35;;;;;;;;;;;;;;;;;;5022237;28;20014;-74
2024/03/31 09:37:01;;;;;;;;;;;;;;;;;;5019226;28;19929;-73
2024/03/31 09:39:27;;;;;;;;;;;;;;;;;;5017954;28;20516;-74
2024/03/31 09:41:53;;;;;;;;;;;;;;;;;;5024226;28;19960;-74
2024/03/31 09:44:18;;;;;;;;;;;;;;;;;;5019983;28;19933;-74
2024/03/31 09:46:44;;;;;;;;;;;;;;;;;;5021210;28;19933;-74
2024/03/31 09:49:09;;;;;;;;;;;;;;;;;;5022521;28;20007;-74
2024/03/31 09:51:35;;;;;;;;;;;;;;;;;;5020546;28;20946;-74
2024/03/31 09:54:00;;;;;;;;;;;;;;;;;;5018765;28;19932;-73
2024/03/31 09:56:25;;;;;;;;;;;;;;;;;;5019014;28;19935;-75
2024/03/31 09:58:51;;;;;;;;;;;;;;;;;;5018977;28;19952;-73
2024/03/31 10:01:16;;;;;;;;;;;;;;;;;;5025012;28;19936;-73
2024/03/31 10:03:42;;;;;;;;;;;;;;;;;;5021194;28;20012;-76
2024/03/31 10:06:08;;;;;;;;;;;;;;;;;;5006292;28;19926;-76
2024/03/31 10:08:34;;;;;;;;;;;;;;;;;;5021763;28;19956;-75
2024/03/31 10:10:59;;;;;;;;;;;;;;;;;;5019115;28;19968;-75
2024/03/31 10:13:24;;;;;;;;;;;;;;;;;;5003398;28;19925;-74
2024/03/31 10:15:50;;;;;;;;;;;;;;;;;;5022323;28;19929;-74
2024/03/31 10:18:15;;;;;;;;;;;;;;;;;;5019204;28;19929;-74
2024/03/31 10:20:41;;;;;;;;;;;;;;;;;;5020038;28;19937;-74
2024/03/31 10:23:06;;;;;;;;;;;;;;;;;;5019426;28;19932;-74
2024/03/31 10:25:31;;;;;;;;;;;;;;;;;;5016222;28;19936;-74
2024/03/31 10:27:57;;;;;;;;;;;;;;;;;;5017459;28;19932;-75
2024/03/31 10:30:22;;;;;;;;;;;;;;;;;;5015559;28;19929;-73
2024/03/31 10:32:48;;;;;;;;;;;;;;;;;;5016995;28;19928;-74
2024/03/31 10:35:13;;;;;;;;;;;;;;;;;;5022003;28;19937;-76
2024/03/31 10:37:39;;;;;;;;;;;;;;;;;;5015266;28;19925;-76
2024/03/31 10:40:04;;;;;;;;;;;;;;;;;;5016723;28;19939;-75
2024/03/31 10:42:30;;;;;;;;;;;;;;;;;;5014592;28;19929;-74
2024/03/31 10:44:55;;;;;;;;;;;;;;;;;;5018578;28;19979;-74
2024/03/31 10:47:21;;;;;;;;;;;;;;;;;;5023920;28;19928;-75
2024/03/31 10:49:46;;;;;;;;;;;;;;;;;;5018388;28;20011;-74
2024/03/31 10:52:12;;;;;;;;;;;;;;;;;;5022103;28;20390;-75
2024/03/31 10:54:38;;;;;;;;;;;;;;;;;;5022689;28;20039;-74
2024/03/31 10:57:03;;;;;;;;;;;;;;;;;;5024226;28;20378;-74
2024/03/31 10:59:28;;;;;;;;;;;;;;;;;;5022632;28;20047;-74
2024/03/31 11:01:54;;;;;;;;;;;;;;;;;;5021911;28;19925;-75
2024/03/31 11:04:19;;;;;;;;;;;;;;;;;;5022989;28;20008;-75
2024/03/31 11:06:45;;;;;;;;;;;;;;;;;;5006799;28;19983;-74
2024/03/31 11:09:11;;;;;;;;;;;;;;;;;;5024798;28;19968;-75
2024/03/31 11:11:36;;;;;;;;;;;;;;;;;;5024981;28;19928;-75
2024/03/31 11:14:02;;;;;;;;;;;;;;;;;;5022796;28;20366;-76
2024/03/31 11:16:27;;;;;;;;;;;;;;;;;;5020956;28;19925;-75
2024/03/31 11:18:53;;;;;;;;;;;;;;;;;;5021178;28;20396;-75
2024/03/31 11:21:18;;;;;;;;;;;;;;;;;;5021407;28;19980;-75
2024/03/31 11:23:44;;;;;;;;;;;;;;;;;;5022344;28;20341;-74
2024/03/31 11:26:09;;;;;;;;;;;;;;;;;;5020376;28;19933;-74
2024/03/31 11:28:35;;;;;;;;;;;;;;;;;;5024683;28;19980;-75
2024/03/31 11:31:00;;;;;;;;;;;;;;;;;;5019214;28;19933;-74
2024/03/31 11:33:25;;;;;;;;;;;;;;;;;;5026839;28;19924;-74
2024/03/31 11:35:51;;;;;;;;;;;;;;;;;;5020697;28;19951;-75
2024/03/31 11:38:16;;;;;;;;;;;;;;;;;;5020204;28;19929;-75
2024/03/31 11:40:42;;;;;;;;;;;;;;;;;;5023944;28;19935;-72
2024/03/31 11:43:08;;;;;;;;;;;;;;;;;;5022800;28;19949;-75
2024/03/31 11:45:33;;;;;;;;;;;;;;;;;;5010075;28;19929;-77
2024/03/31 11:48:00;;;;;;;;;;;;;;;;;;5024876;28;19968;-75
2024/03/31 11:50:25;;;;;;;;;;;;;;;;;;5023180;28;19990;-75
2024/03/31 11:52:51;;;;;;;;;;;;;;;;;;5007013;28;19925;-75
2024/03/31 11:55:16;;;;;;;;;;;;;;;;;;5022810;28;19925;-76
2024/03/31 11:57:41;;;;;;;;;;;;;;;;;;5022046;28;20377;-77
2024/03/31 12:00:07;;;;;;;;;;;;;;;;;;5021993;28;19961;-77
2024/03/31 12:02:37;;;;;;;;;;;;;;;;;;5026100;28;20278;-76
2024/03/31 12:05:03;;;;;;;;;;;;;;;;;;5020502;28;19956;-76
2024/03/31 12:07:28;;;;;;;;;;;;;;;;;;5020405;28;19932;-76
2024/03/31 12:09:54;;;;;;;;;;;;;;;;;;5002201;28;19944;-76
2024/03/31 12:12:19;;;;;;;;;;;;;;;;;;5022067;28;19952;-75
2024/03/31 12:14:45;;;;;;;;;;;;;;;;;;5020584;28;19929;-75
2024/03/31 12:17:11;;;;;;;;;;;;;;;;;;5021496;28;19932;-77
2024/03/31 12:19:37;;;;;;;;;;;;;;;;;;5021549;28;19929;-75
2024/03/31 12:22:02;;;;;;;;;;;;;;;;;;5020101;28;19978;-76
2024/03/31 12:24:27;;;;;;;;;;;;;;;;;;5018771;28;20032;-77
2024/03/31 12:26:53;;;;;;;;;;;;;;;;;;5020815;28;19936;-75
2024/03/31 12:29:18;;;;;;;;;;;;;;;;;;5020483;28;19975;-75
2024/03/31 12:31:44;;;;;;;;;;;;;;;;;;5022506;28;19951;-76
2024/03/31 12:34:09;;;;;;;;;;;;;;;;;;5021384;28;19924;-75
2024/03/31 12:36:34;;;;;;;;;;;;;;;;;;5016730;28;19995;-76
2024/03/31 12:39:00;;;;;;;;;;;;;;;;;;5023724;28;20313;-75
2024/03/31 12:41:25;;;;;;;;;;;;;;;;;;5023699;28;20020;-75
2024/03/31 12:43:51;;;;;;;;;;;;;;;;;;5020414;28;19924;-76
2024/03/31 12:46:17;;;;;;;;;;;;;;;;;;5025579;28;19929;-76
2024/03/31 12:48:44;;;;;;;;;;;;;;;;;;5024923;28;19925;-76
2024/03/31 12:51:09;;;;;;;;;;;;;;;;;;5020735;28;19933;-75
2024/03/31 12:53:35;;;;;;;;;;;;;;;;;;5016683;28;20501;-77
2024/03/31 12:56:00;;;;;;;;;;;;;;;;;;5020903;28;19929;-75
2024/03/31 12:58:26;;;;;;;;;;;;;;;;;;5004832;28;20294;-75
2024/03/31 13:00:53;;;;;;;;;;;;;;;;;;5022255;28;20577;-76
2024/03/31 13:03:18;;;;;;;;;;;;;;;;;;5022728;28;19933;-76
2024/03/31 13:05:44;;;;;;;;;;;;;;;;;;5020952;28;19936;-75
2024/03/31 13:08:09;;;;;;;;;;;;;;;;;;5021416;28;19952;-75
2024/03/31 13:10:35;;;;;;;;;;;;;;;;;;5021036;28;20620;-75
2024/03/31 13:13:04;;;;;;;;;;;;;;;;;;5022156;28;19975;-75
2024/03/31 13:15:29;;;;;;;;;;;;;;;;;;5018270;28;19929;-75
2024/03/31 13:17:54;;;;;;;;;;;;;;;;;;5020966;28;19935;-75
2024/03/31 13:20:20;;;;;;;;;;;;;;;;;;5025792;28;19925;-75
2024/03/31 13:22:45;;;;;;;;;;;;;;;;;;5021060;28;19925;-76
2024/03/31 13:25:11;;;;;;;;;;;;;;;;;;5012395;28;19925;-76
2024/03/31 13:27:36;;;;;;;;;;;;;;;;;;5014266;28;20020;-76
2024/03/31 13:30:02;;;;;;;;;;;;;;;;;;5014898;28;19925;-76
2024/03/31 13:32:27;;;;;;;;;;;;;;;;;;5021348;28;19929;-75
2024/03/31 13:34:53;;;;;;;;;;;;;;;;;;5017554;28;20597;-75
2024/03/31 13:37:18;;;;;;;;;;;;;;;;;;5022242;28;19935;-75
2024/03/31 13:39:44;;;;;;;;;;;;;;;;;;5016609;28;20377;-76
2024/03/31 13:42:09;;;;;;;;;;;;;;;;;;5011140;28;19955;-76
2024/03/31 13:44:35;;;;;;;;;;;;;;;;;;5019781;28;19929;-74
2024/03/31 13:47:00;;;;;;;;;;;;;;;;;;5019429;28;19932;-76
2024/03/31 13:49:26;;;;;;;;;;;;;;;;;;5018523;28;19925;-76
2024/03/31 13:51:51;;;;;;;;;;;;;;;;;;5019852;28;19932;-78
2024/03/31 13:54:17;;;;;;;;;;;;;;;;;;5017886;28;19935;-76
2024/03/31 13:56:44;;;;;;;;;;;;;;;;;;5003783;28;19929;-76
2024/03/31 13:59:09;;;;;;;;;;;;;;;;;;5025640;28;19932;-76
2024/03/31 14:01:35;;;;;;;;;;;;;;;;;;5019503;28;19929;-76
2024/03/31 14:04:00;;;;;;;;;;;;;;;;;;5018680;28;20334;-76
2024/03/31 14:06:26;;;;;;;;;;;;;;;;;;5020448;28;19968;-75
2024/03/31 14:08:51;;;;;;;;;;;;;;;;;;5019157;28;19983;-76
2024/03/31 14:11:17;;;;;;;;;;;;;;;;;;5022034;28;19979;-75
2024/03/31 14:13:42;;;;;;;;;;;;;;;;;;5022168;28;19925;-77
2024/03/31 14:16:09;;;;;;;;;;;;;;;;;;5021159;28;19929;-79
2024/03/31 14:18:34;;;;;;;;;;;;;;;;;;5017643;28;19929;-76
2024/03/31 14:21:00;;;;;;;;;;;;;;;;;;5017080;28;19978;-76
2024/03/31 14:23:25;;;;;;;;;;;;;;;;;;5020264;28;19925;-75
2024/03/31 14:25:51;;;;;;;;;;;;;;;;;;5021231;28;19929;-77
2024/03/31 14:28:17;;;;;;;;;;;;;;;;;;5026096;28;19925;-73
2024/03/31 14:30:42;;;;;;;;;;;;;;;;;;5022923;28;19929;-77
2024/03/31 14:33:08;;;;;;;;;;;;;;;;;;5029606;28;20330;-76
2024/03/31 14:35:35;;;;;;;;;;;;;;;;;;5030350;28;19928;-76
2024/03/31 14:38:01;;;;;;;;;;;;;;;;;;5022747;28;19932;-76
2024/03/31 14:40:28;;;;;;;;;;;;;;;;;;5025983;28;20035;-76
2024/03/31 14:42:53;;;;;;;;;;;;;;;;;;5025243;28;19936;-76
2024/03/31 14:45:19;;;;;;;;;;;;;;;;;;5021319;28;19995;-76
2024/03/31 14:47:45;;;;;;;;;;;;;;;;;;5023615;28;19925;-76
2024/03/31 14:50:10;;;;;;;;;;;;;;;;;;5023129;28;19925;-76
2024/03/31 14:52:35;;;;;;;;;;;;;;;;;;5017844;28;20286;-76
2024/03/31 14:55:01;;;;;;;;;;;;;;;;;;5018826;28;19983;-76
2024/03/31 14:57:27;;;;;;;;;;;;;;;;;;5025094;28;19929;-76
2024/03/31 14:59:52;;;;;;;;;;;;;;;;;;5021930;28;20385;-75
2024/03/31 15:02:18;;;;;;;;;;;;;;;;;;5026153;28;19979;-76
2024/03/31 15:04:43;;;;;;;;;;;;;;;;;;5022659;28;19925;-76
2024/03/31 15:07:08;;;;;;;;;;;;;;;;;;5022824;28;19925;-76
2024/03/31 15:09:34;;;;;;;;;;;;;;;;;;5006665;28;19936;-78
2024/03/31 15:11:59;;;;;;;;;;;;;;;;;;5023791;28;20400;-76
2024/03/31 15:14:25;;;;;;;;;;;;;;;;;;5022490;28;19932;-76
2024/03/31 15:16:50;;;;;;;;;;;;;;;;;;5019496;28;19954;-76
2024/03/31 15:19:16;;;;;;;;;;;;;;;;;;5022392;28;20443;-76
2024/03/31 15:21:41;;;;;;;;;;;;;;;;;;5022621;28;20610;-75
2024/03/31 15:24:07;;;;;;;;;;;;;;;;;;5011686;28;19940;-75
2024/03/31 15:26:32;;;;;;;;;;;;;;;;;;5025519;28;19935;-76
2024/03/31 15:28:57;;;;;;;;;;;;;;;;;;5021509;28;19972;-75
2024/03/31 15:31:23;;;;;;;;;;;;;;;;;;5002783;28;19925;-75
2024/03/31 15:33:48;;;;;;;;;;;;;;;;;;5017614;28;19969;-76
2024/03/31 15:36:15;;;;;;;;;;;;;;;;;;5022689;28;20011;-76
2024/03/31 15:38:40;;;;;;;;;;;;;;;;;;5045029;28;20384;-75
2024/03/31 15:41:06;;;;;;;;;;;;;;;;;;5021754;28;19929;-76
2024/03/31 15:43:31;;;;;;;;;;;;;;;;;;5019662;28;19925;-75
2024/03/31 15:45:57;;;;;;;;;;;;;;;;;;5026603;28;19929;-75
2024/03/31 15:48:22;;;;;;;;;;;;;;;;;;5024621;28;19940;-75
2024/03/31 17:00:11;;;;;;;;;;;;;;;;;;5097089;27;19959;-40
2024/03/31 17:02:37;;;;;;;;;;;;;;;;;;5097890;28;19967;-39
2024/03/31 17:05:02;;;;;;;;;;;;;;;;;;5072412;28;19980;-42
2024/03/31 17:09:20;;;;;;;;;;;20.50;99.90;;;;;;4970761;27;19957;-37
2024/03/31 17:11:46;;;;;;;;;;;20.60;87.00;;;;;;4798145;28;68630;-37
2024/03/31 17:35:34;;;;;;;15.17;1.60;;;;;;;-144.52;63.26;84731.19;7431346;19;20457;-44
2024/03/31 17:38:00;;;;;;;14.33;2.13;;;;;;;-144.52;65.73;84794.69;7432788;19;20410;-46
2024/03/31 17:40:26;;;;;;;15.23;1.70;;;;;;;-144.52;65.36;84753.00;6412646;19;20579;-48
2024/03/31 17:42:52;;;;;;;15.10;1.80;;;;;;;-144.52;66.71;84812.53;7324304;19;20974;-48
2024/03/31 17:45:17;;;;;;;14.53;1.90;;;;;;;-144.52;66.37;84814.53;7430346;19;20784;-43
2024/03/31 17:47:44;;;;;;;15.53;1.70;;;;;;;-144.52;66.64;84816.50;7430321;19;20914;-45
2024/03/31 17:50:10;;;;;;;15.03;2.07;;;;;;;-144.52;66.77;84814.53;7431812;19;20432;-44
2024/03/31 17:52:38;;;;;;;14.17;1.67;;;;;;;-144.52;66.65;84828.41;7430684;19;20403;-46
2024/03/31 17:55:05;;;;;;;14.10;1.60;;;;;;;-144.52;66.78;84824.44;7429094;19;20425;-47